createdAt,value
2017-10-26T00:01:39.595Z,11.00
2017-10-26T00:04:08.136Z,17.40
2017-10-26T00:06:37.327Z,14.00
2017-10-26T00:09:04.488Z,12.10
2017-10-26T00:11:32.652Z,9.87
2017-10-26T00:14:00.067Z,9.50
2017-10-26T00:16:27.363Z,10.20
2017-10-26T00:18:54.559Z,10.07
2017-10-26T00:21:23.096Z,10.20
2017-10-26T00:23:50.128Z,9.20
2017-10-26T00:26:17.221Z,10.50
2017-10-26T00:28:44.300Z,10.60
2017-10-26T00:31:11.938Z,9.27
2017-10-26T00:33:40.082Z,10.33
2017-10-26T00:36:08.261Z,9.70
2017-10-26T00:38:35.552Z,10.37
2017-10-26T00:41:03.183Z,11.93
2017-10-26T00:43:30.333Z,12.87
2017-10-26T00:45:58.809Z,10.70
2017-10-26T00:48:27.448Z,12.50
2017-10-26T00:50:54.920Z,13.83
2017-10-26T00:53:22.557Z,12.13
2017-10-26T00:55:49.584Z,12.57
2017-10-26T00:58:17.427Z,10.67
2017-10-26T01:00:44.808Z,10.03
2017-10-26T01:03:12.210Z,10.23
2017-10-26T01:05:39.649Z,11.30
2017-10-26T01:08:06.745Z,10.17
2017-10-26T01:10:33.836Z,10.73
2017-10-26T01:13:02.086Z,9.97
2017-10-26T01:15:29.484Z,9.93
2017-10-26T01:17:56.513Z,9.20
2017-10-26T01:20:23.589Z,12.30
2017-10-26T01:22:51.396Z,12.47
2017-10-26T01:25:18.566Z,11.43
2017-10-26T01:27:46.217Z,10.53
2017-10-26T01:30:13.669Z,11.07
2017-10-26T01:32:41.916Z,10.93
2017-10-26T01:35:10.764Z,10.60
2017-10-26T01:37:39.418Z,9.97
2017-10-26T01:40:07.085Z,12.13
2017-10-26T01:42:35.786Z,8.30
2017-10-26T01:45:03.433Z,9.27
2017-10-26T01:47:31.198Z,7.53
2017-10-26T01:49:58.971Z,7.17
2017-10-26T01:52:29.093Z,6.40
2017-10-26T01:54:57.469Z,6.53
2017-10-26T01:57:27.485Z,6.87
2017-10-26T01:59:54.548Z,6.90
2017-10-26T02:02:22.410Z,8.17
2017-10-26T02:04:49.528Z,8.80
2017-10-26T02:07:17.265Z,8.30
2017-10-26T02:09:44.935Z,8.43
2017-10-26T02:12:13.457Z,7.73
2017-10-26T02:14:44.406Z,6.67
2017-10-26T02:17:12.283Z,6.10
2017-10-26T02:19:39.304Z,6.83
2017-10-26T02:22:06.876Z,8.20
2017-10-26T02:24:35.056Z,6.83
2017-10-26T02:27:03.324Z,7.80
2017-10-26T02:29:43.282Z,8.77
2017-10-26T02:32:10.632Z,8.07
2017-10-26T02:34:38.615Z,6.27
2017-10-26T02:37:05.960Z,7.00
2017-10-26T02:39:33.117Z,7.33
2017-10-26T02:42:01.705Z,7.60
2017-10-26T02:44:29.245Z,7.80
2017-10-26T02:46:57.729Z,7.13
2017-10-26T02:49:24.993Z,8.73
2017-10-26T02:51:52.688Z,7.40
2017-10-26T02:54:20.943Z,7.17
2017-10-26T02:56:48.351Z,8.53
2017-10-26T02:59:17.005Z,9.10
2017-10-26T03:01:44.436Z,9.03
2017-10-26T03:04:12.412Z,8.37
2017-10-26T03:06:39.498Z,7.30
2017-10-26T03:09:06.766Z,8.33
2017-10-26T03:11:34.989Z,7.90
2017-10-26T03:14:02.297Z,10.80
2017-10-26T03:16:30.012Z,8.80
2017-10-26T03:18:57.860Z,9.77
2017-10-26T03:21:25.260Z,12.50
2017-10-26T03:23:53.410Z,9.90
2017-10-26T03:26:20.526Z,9.40
2017-10-26T03:28:48.399Z,12.00
2017-10-26T03:31:15.858Z,9.97
2017-10-26T03:33:42.957Z,8.87
2017-10-26T03:36:10.133Z,11.33
2017-10-26T03:38:40.456Z,9.40
2017-10-26T03:41:07.942Z,10.40
2017-10-26T03:43:35.347Z,9.33
2017-10-26T03:46:02.264Z,8.50
2017-10-26T03:48:29.528Z,13.50
2017-10-26T03:50:57.085Z,12.20
2017-10-26T03:53:24.757Z,11.17
2017-10-26T03:55:53.363Z,11.57
2017-10-26T03:58:20.799Z,12.53
2017-10-26T04:00:48.097Z,11.83
2017-10-26T04:03:15.280Z,14.73
2017-10-26T04:05:42.335Z,13.10
2017-10-26T04:08:09.388Z,11.53
2017-10-26T04:10:37.161Z,12.47
2017-10-26T04:13:05.296Z,10.60
2017-10-26T04:15:32.381Z,10.73
2017-10-26T04:17:59.504Z,10.43
2017-10-26T04:20:26.909Z,19.03
2017-10-26T04:22:54.521Z,11.27
2017-10-26T04:25:21.667Z,10.40
2017-10-26T04:28:00.742Z,9.47
2017-10-26T04:30:29.037Z,11.00
2017-10-26T04:33:02.215Z,10.77
2017-10-26T04:35:29.534Z,11.10
2017-10-26T04:37:56.924Z,11.23
2017-10-26T04:40:28.140Z,10.70
2017-10-26T04:42:56.116Z,10.50
2017-10-26T04:45:23.930Z,12.40
2017-10-26T04:47:52.694Z,12.90
2017-10-26T04:50:19.938Z,12.07
2017-10-26T04:52:48.113Z,12.47
2017-10-26T04:55:15.416Z,14.13
2017-10-26T04:57:43.460Z,14.03
2017-10-26T05:00:10.477Z,15.60
2017-10-26T05:02:40.001Z,15.20
2017-10-26T05:05:07.073Z,15.90
2017-10-26T05:07:34.142Z,12.53
2017-10-26T05:10:02.068Z,14.17
2017-10-26T05:12:30.076Z,14.73
2017-10-26T05:14:57.588Z,14.50
2017-10-26T05:17:24.727Z,15.83
2017-10-26T05:19:52.560Z,15.57
2017-10-26T05:22:19.573Z,16.70
2017-10-26T05:24:47.436Z,15.10
2017-10-26T05:27:15.036Z,14.07
2017-10-26T05:29:43.555Z,15.87
2017-10-26T05:32:10.577Z,16.73
2017-10-26T05:34:37.712Z,15.77
2017-10-26T05:37:05.685Z,16.03
2017-10-26T05:39:33.956Z,16.53
2017-10-26T05:42:02.209Z,15.70
2017-10-26T05:44:30.508Z,16.90
2017-10-26T05:46:58.021Z,59.70
2017-10-26T05:49:25.016Z,24.10
2017-10-26T05:51:53.328Z,29.90
2017-10-26T05:54:20.373Z,45.90
2017-10-26T05:56:48.823Z,29.00
2017-10-26T05:59:15.835Z,50.40
2017-10-26T06:01:43.506Z,24.67
2017-10-26T06:04:10.494Z,20.73
2017-10-26T06:06:39.339Z,54.93
2017-10-26T06:09:07.548Z,41.30
2017-10-26T06:11:34.762Z,24.13
2017-10-26T06:14:03.353Z,19.40
2017-10-26T06:16:30.429Z,22.47
2017-10-26T06:18:57.764Z,23.10
2017-10-26T06:21:24.752Z,56.03
2017-10-26T06:23:52.181Z,72.83
2017-10-26T06:26:19.229Z,69.17
2017-10-26T06:28:51.827Z,63.23
2017-10-26T06:31:18.869Z,50.17
2017-10-26T06:33:47.427Z,86.27
2017-10-26T06:36:14.417Z,121.57
2017-10-26T06:38:42.092Z,65.90
2017-10-26T06:41:10.005Z,109.07
2017-10-26T06:43:38.077Z,71.73
2017-10-26T06:46:05.564Z,134.03
2017-10-26T06:48:32.842Z,100.90
2017-10-26T06:50:59.941Z,84.77
2017-10-26T06:53:27.448Z,45.43
2017-10-26T06:55:55.219Z,49.47
2017-10-26T06:58:23.748Z,64.90
2017-10-26T07:00:50.801Z,52.83
2017-10-26T07:03:17.863Z,38.37
2017-10-26T07:05:45.201Z,23.63
2017-10-26T07:08:12.384Z,39.00
2017-10-26T07:10:39.455Z,35.60
2017-10-26T07:13:07.307Z,37.87
2017-10-26T07:15:35.133Z,19.27
2017-10-26T07:18:02.264Z,30.00
2017-10-26T07:20:29.549Z,15.73
2017-10-26T07:22:57.523Z,15.40
2017-10-26T07:25:24.554Z,11.97
2017-10-26T07:27:52.392Z,18.50
2017-10-26T07:30:19.496Z,15.63
2017-10-26T07:32:46.631Z,15.10
2017-10-26T07:35:13.643Z,19.30
2017-10-26T07:37:41.604Z,18.83
2017-10-26T07:40:09.353Z,14.10
2017-10-26T07:42:36.471Z,14.77
2017-10-26T07:45:04.606Z,12.40
2017-10-26T07:47:31.683Z,14.40
2017-10-26T07:49:59.996Z,14.97
2017-10-26T07:52:27.457Z,13.20
2017-10-26T07:54:54.405Z,12.40
2017-10-26T07:57:23.497Z,11.83
2017-10-26T07:59:50.576Z,11.47
2017-10-26T08:02:19.716Z,12.20
2017-10-26T08:04:48.461Z,11.83
2017-10-26T08:07:15.504Z,11.73
2017-10-26T08:09:42.806Z,11.50
2017-10-26T08:12:10.205Z,16.27
2017-10-26T08:14:38.820Z,12.20
2017-10-26T08:17:06.308Z,11.67
2017-10-26T08:19:35.857Z,15.97
2017-10-26T08:22:02.873Z,15.50
2017-10-26T08:24:30.308Z,15.67
2017-10-26T08:26:57.618Z,22.80
2017-10-26T08:29:24.681Z,56.43
2017-10-26T08:31:51.911Z,22.90
2017-10-26T08:34:19.872Z,37.77
2017-10-26T08:36:47.867Z,28.70
2017-10-26T08:39:15.694Z,33.27
2017-10-26T08:41:43.476Z,34.60
2017-10-26T08:44:10.693Z,30.17
2017-10-26T08:46:38.878Z,30.37
2017-10-26T08:49:06.361Z,27.03
2017-10-26T08:51:33.751Z,31.37
2017-10-26T08:54:01.868Z,28.70
2017-10-26T08:56:28.945Z,27.10
2017-10-26T08:58:57.400Z,27.17
2017-10-26T09:01:26.806Z,27.40
2017-10-26T09:03:55.372Z,28.00
2017-10-26T09:06:22.654Z,32.37
2017-10-26T09:08:49.925Z,32.30
2017-10-26T09:11:17.148Z,26.57
2017-10-26T09:13:44.550Z,33.10
2017-10-26T09:16:13.665Z,32.07
2017-10-26T09:18:41.441Z,32.83
2017-10-26T09:21:08.829Z,31.50
2017-10-26T09:23:39.008Z,26.77
2017-10-26T09:26:06.373Z,25.77
2017-10-26T09:28:33.608Z,25.63
2017-10-26T09:31:02.547Z,26.03
2017-10-26T09:33:36.965Z,24.50
2017-10-26T09:36:04.698Z,25.87
2017-10-26T09:38:34.237Z,28.00
2017-10-26T09:41:02.377Z,27.47
2017-10-26T09:43:30.005Z,25.87
2017-10-26T09:45:57.425Z,28.60
2017-10-26T09:48:25.281Z,29.50
2017-10-26T09:50:54.463Z,27.57
2017-10-26T09:53:22.676Z,26.60
2017-10-26T09:55:49.725Z,25.80
2017-10-26T09:58:16.804Z,24.60
2017-10-26T10:00:44.202Z,24.70
2017-10-26T10:03:12.507Z,25.10
2017-10-26T10:05:39.918Z,22.90
2017-10-26T10:08:07.991Z,24.63
2017-10-26T10:10:35.208Z,23.07
2017-10-26T10:13:03.147Z,21.23
2017-10-26T10:15:30.930Z,22.23
2017-10-26T10:18:02.391Z,24.57
2017-10-26T10:20:29.784Z,24.80
2017-10-26T10:22:56.893Z,23.77
2017-10-26T10:25:24.353Z,22.90
2017-10-26T10:27:52.313Z,25.50
2017-10-26T10:30:19.956Z,26.90
2017-10-26T10:32:48.576Z,23.70
2017-10-26T10:35:16.240Z,22.23
2017-10-26T10:37:43.875Z,24.63
2017-10-26T10:40:11.320Z,24.30
2017-10-26T10:42:38.446Z,22.20
2017-10-26T10:45:06.398Z,21.57
2017-10-26T10:47:34.573Z,23.73
2017-10-26T10:50:01.899Z,22.67
2017-10-26T10:52:29.218Z,23.17
2017-10-26T10:54:56.451Z,25.20
2017-10-26T10:57:24.752Z,23.97
2017-10-26T10:59:58.051Z,25.37
2017-10-26T11:02:28.174Z,26.50
2017-10-26T11:04:55.268Z,33.43
2017-10-26T11:07:22.771Z,26.70
2017-10-26T11:09:50.623Z,30.43
2017-10-26T11:12:18.466Z,30.77
2017-10-26T11:15:05.005Z,33.20
2017-10-26T11:17:34.623Z,32.60
2017-10-26T11:20:03.092Z,32.93
2017-10-26T11:22:33.633Z,33.50
2017-10-26T11:25:01.533Z,33.07
2017-10-26T11:27:28.980Z,32.00
2017-10-26T11:29:56.616Z,30.23
2017-10-26T11:32:24.760Z,30.57
2017-10-26T11:34:52.557Z,33.13
2017-10-26T11:37:19.869Z,29.40
2017-10-26T11:39:48.260Z,37.30
2017-10-26T11:42:16.279Z,38.83
2017-10-26T11:44:44.405Z,29.13
2017-10-26T11:47:11.488Z,28.43
2017-10-26T11:49:38.730Z,32.47
2017-10-26T11:52:06.950Z,27.63
2017-10-26T11:54:34.276Z,25.27
2017-10-26T11:57:02.717Z,25.13
2017-10-26T11:59:30.294Z,25.37
2017-10-26T12:01:58.423Z,22.17
2017-10-26T12:04:25.602Z,22.60
2017-10-26T12:06:53.763Z,21.37
2017-10-26T12:09:21.939Z,17.80
2017-10-26T12:11:49.298Z,18.40
2017-10-26T12:14:16.607Z,22.23
2017-10-26T12:16:43.957Z,22.30
2017-10-26T12:19:11.748Z,19.53
2017-10-26T12:21:40.105Z,20.67
2017-10-26T12:24:08.666Z,20.80
2017-10-26T12:26:35.925Z,19.80
2017-10-26T12:29:03.892Z,19.37
2017-10-26T12:31:32.738Z,16.00
2017-10-26T12:34:00.001Z,16.40
2017-10-26T12:36:28.649Z,15.77
2017-10-26T12:38:56.171Z,14.73
2017-10-26T12:41:23.398Z,13.27
2017-10-26T12:43:50.755Z,13.30
2017-10-26T12:46:17.963Z,12.37
2017-10-26T12:48:45.965Z,11.37
2017-10-26T12:51:14.046Z,13.20
2017-10-26T12:53:41.330Z,10.27
2017-10-26T12:56:09.328Z,10.40
2017-10-26T12:58:38.575Z,9.83
2017-10-26T13:01:06.188Z,10.73
2017-10-26T13:03:33.804Z,9.53
2017-10-26T13:06:01.583Z,10.93
2017-10-26T13:08:29.792Z,10.00
2017-10-26T13:10:58.431Z,10.57
2017-10-26T13:13:26.887Z,10.80
2017-10-26T13:15:54.853Z,9.70
2017-10-26T13:18:23.225Z,12.10
2017-10-26T13:20:51.068Z,11.00
2017-10-26T13:23:19.417Z,11.67
2017-10-26T13:25:46.648Z,10.10
2017-10-26T13:28:13.856Z,10.87
2017-10-26T13:30:44.149Z,13.87
2017-10-26T13:33:11.589Z,12.00
2017-10-26T13:35:38.649Z,11.90
2017-10-26T13:38:06.099Z,9.83
2017-10-26T13:40:33.741Z,10.77
2017-10-26T13:43:01.425Z,10.37
2017-10-26T13:45:31.160Z,12.50
2017-10-26T13:47:58.800Z,10.97
2017-10-26T13:50:26.532Z,11.40
2017-10-26T13:52:54.272Z,10.30
2017-10-26T13:55:25.305Z,10.77
2017-10-26T13:57:52.246Z,13.30
2017-10-26T14:00:20.178Z,14.70
2017-10-26T14:02:48.521Z,10.60
2017-10-26T14:05:16.470Z,15.73
2017-10-26T14:07:44.424Z,10.70
2017-10-26T14:10:11.594Z,10.10
2017-10-26T14:12:41.073Z,10.93
2017-10-26T14:15:09.604Z,10.23
2017-10-26T14:17:37.911Z,12.93
2017-10-26T14:20:05.294Z,9.80
2017-10-26T14:22:33.118Z,10.20
2017-10-26T14:25:00.509Z,9.83
2017-10-26T14:27:28.908Z,10.13
2017-10-26T14:29:56.312Z,11.13
2017-10-26T14:32:25.881Z,11.60
2017-10-26T14:34:52.923Z,10.47
2017-10-26T14:37:20.784Z,10.67
2017-10-26T14:39:48.755Z,11.37
2017-10-26T14:42:17.156Z,11.97
2017-10-26T14:44:44.250Z,10.70
2017-10-26T14:47:13.924Z,10.07
2017-10-26T14:49:43.582Z,10.50
2017-10-26T14:52:12.247Z,10.40
2017-10-26T14:54:39.608Z,10.83
2017-10-26T14:57:08.632Z,9.73
2017-10-26T14:59:36.081Z,9.20
2017-10-26T15:02:04.266Z,8.97
2017-10-26T15:04:33.361Z,9.60
2017-10-26T15:07:01.058Z,9.60
2017-10-26T15:09:29.288Z,12.90
2017-10-26T15:11:56.258Z,9.73
2017-10-26T15:14:23.421Z,10.00
2017-10-26T15:16:52.958Z,9.30
2017-10-26T15:19:20.097Z,8.50
2017-10-26T15:21:48.559Z,9.20
2017-10-26T15:24:15.778Z,8.90
2017-10-26T15:26:43.074Z,9.70
2017-10-26T15:29:12.567Z,11.37
2017-10-26T15:31:42.564Z,11.10
2017-10-26T15:34:10.533Z,10.33
2017-10-26T15:36:38.219Z,10.50
2017-10-26T15:39:05.744Z,10.30
2017-10-26T15:41:33.100Z,10.73
2017-10-26T15:44:00.098Z,9.73
2017-10-26T15:46:28.298Z,11.67
2017-10-26T15:48:55.468Z,9.63
2017-10-26T15:51:23.762Z,9.73
2017-10-26T15:53:51.000Z,9.30
2017-10-26T15:56:18.885Z,9.20
2017-10-26T15:58:46.241Z,9.47
2017-10-26T16:01:14.397Z,10.27
2017-10-26T16:03:41.981Z,10.57
2017-10-26T16:06:08.987Z,8.93
2017-10-26T16:08:39.654Z,10.80
2017-10-26T16:11:08.045Z,9.63
2017-10-26T16:13:35.445Z,12.03
2017-10-26T16:16:03.272Z,9.50
2017-10-26T16:18:30.990Z,10.53
2017-10-26T16:20:58.686Z,11.30
2017-10-26T16:23:26.079Z,13.13
2017-10-26T16:25:54.381Z,10.20
2017-10-26T16:28:22.730Z,14.03
2017-10-26T16:30:49.955Z,9.37
2017-10-26T16:33:18.007Z,8.93
2017-10-26T16:35:45.999Z,9.30
2017-10-26T16:38:13.613Z,9.80
2017-10-26T16:40:41.696Z,11.20
2017-10-26T16:43:10.015Z,11.23
2017-10-26T16:45:37.570Z,11.40
2017-10-26T16:48:04.765Z,11.77
2017-10-26T16:50:32.760Z,11.27
2017-10-26T16:53:00.044Z,11.83
2017-10-26T16:55:27.256Z,10.57
2017-10-26T16:57:55.330Z,10.23
2017-10-26T17:00:23.364Z,10.50
2017-10-26T17:02:51.804Z,10.20
2017-10-26T17:05:18.946Z,10.57
2017-10-26T17:07:46.762Z,10.17
2017-10-26T17:10:13.889Z,11.17
2017-10-26T17:12:41.524Z,11.63
2017-10-26T17:15:09.034Z,11.40
2017-10-26T17:17:37.276Z,12.20
2017-10-26T17:20:04.332Z,12.33
2017-10-26T17:22:32.045Z,12.93
2017-10-26T17:25:01.100Z,13.37
2017-10-26T17:27:29.168Z,13.43
2017-10-26T17:29:56.475Z,13.20
2017-10-26T17:32:24.203Z,14.00
2017-10-26T17:34:51.272Z,13.50
2017-10-26T17:37:18.542Z,14.70
2017-10-26T17:39:47.185Z,13.40
2017-10-26T17:42:14.193Z,12.50
2017-10-26T17:44:44.566Z,13.10
2017-10-26T17:47:12.091Z,11.87
2017-10-26T17:49:39.418Z,13.40
2017-10-26T17:52:07.224Z,13.70
2017-10-26T17:54:34.448Z,14.00
2017-10-26T17:57:02.515Z,19.00
2017-10-26T17:59:31.065Z,14.27
2017-10-26T18:01:59.528Z,13.00
2017-10-26T18:04:26.936Z,13.03
2017-10-26T18:06:55.777Z,14.13
2017-10-26T18:09:23.381Z,15.97
2017-10-26T18:11:51.364Z,13.77
2017-10-26T18:14:19.612Z,16.60
2017-10-26T18:16:46.690Z,16.13
2017-10-26T18:19:14.466Z,14.07
2017-10-26T18:21:41.652Z,14.40
2017-10-26T18:24:09.358Z,14.80
2017-10-26T18:26:36.390Z,15.27
2017-10-26T18:29:03.550Z,14.70
2017-10-26T18:31:31.416Z,13.63
2017-10-26T18:33:58.437Z,13.73
2017-10-26T18:36:25.538Z,12.63
2017-10-26T18:38:52.639Z,13.70
2017-10-26T18:41:19.593Z,13.10
2017-10-26T18:43:46.972Z,15.93
2017-10-26T18:46:14.566Z,11.30
2017-10-26T18:48:41.776Z,14.53
2017-10-26T18:51:09.330Z,13.10
2017-10-26T18:53:36.409Z,14.13
2017-10-26T18:56:03.480Z,14.13
2017-10-26T18:58:31.045Z,12.83
2017-10-26T19:00:59.346Z,14.33
2017-10-26T19:03:26.821Z,13.93
2017-10-26T19:05:54.686Z,15.07
2017-10-26T19:08:22.906Z,18.80
2017-10-26T19:10:50.671Z,16.20
2017-10-26T19:13:18.629Z,12.97
2017-10-26T19:15:45.634Z,13.67
2017-10-26T19:18:13.029Z,14.60
2017-10-26T19:20:40.932Z,14.17
2017-10-26T19:23:08.239Z,14.33
2017-10-26T19:25:35.467Z,14.30
2017-10-26T19:28:02.614Z,18.80
2017-10-26T19:30:29.749Z,15.60
2017-10-26T19:32:57.024Z,14.83
2017-10-26T19:35:24.486Z,13.97
2017-10-26T19:37:51.706Z,13.53
2017-10-26T19:40:18.857Z,13.53
2017-10-26T19:42:46.269Z,12.03
2017-10-26T19:45:13.372Z,12.00
2017-10-26T19:47:41.708Z,13.67
2017-10-26T19:50:09.386Z,13.57
2017-10-26T19:52:36.498Z,13.70
2017-10-26T19:55:03.860Z,13.63
2017-10-26T19:57:31.299Z,13.33
2017-10-26T19:59:58.473Z,13.57
2017-10-26T20:02:25.813Z,16.73
2017-10-26T20:04:54.695Z,18.67
2017-10-26T20:07:22.254Z,18.00
2017-10-26T20:09:49.716Z,19.47
2017-10-26T20:12:17.368Z,17.20
2017-10-26T20:14:44.855Z,18.90
2017-10-26T20:17:12.972Z,17.37
2017-10-26T20:19:40.029Z,20.20
2017-10-26T20:22:09.003Z,19.20
2017-10-26T20:24:36.558Z,18.53
2017-10-26T20:27:04.814Z,19.50
2017-10-26T20:29:32.229Z,18.83
2017-10-26T20:32:00.321Z,20.13
2017-10-26T20:34:28.263Z,19.07
2017-10-26T20:36:57.985Z,18.97
2017-10-26T20:39:25.413Z,18.60
2017-10-26T20:41:53.066Z,18.20
2017-10-26T20:44:25.849Z,20.60
2017-10-26T20:46:54.764Z,19.47
2017-10-26T20:49:29.044Z,18.80
2017-10-26T20:52:03.965Z,18.53
2017-10-26T20:54:37.927Z,19.63
2017-10-26T20:57:11.195Z,18.90
2017-10-26T20:59:44.930Z,17.50
2017-10-26T21:02:18.457Z,19.83
2017-10-26T21:04:53.554Z,18.27
2017-10-26T21:07:27.046Z,17.23
2017-10-26T21:09:56.092Z,18.10
2017-10-26T21:12:29.157Z,21.73
2017-10-26T21:14:56.381Z,17.10
2017-10-26T21:17:24.484Z,18.00
2017-10-26T21:19:52.580Z,19.23
2017-10-26T21:22:19.807Z,18.70
2017-10-26T21:24:46.784Z,19.23
2017-10-26T21:27:14.957Z,20.73
2017-10-26T21:29:43.740Z,18.90
2017-10-26T21:32:12.512Z,19.30
2017-10-26T21:34:39.583Z,17.63
2017-10-26T21:37:06.673Z,18.80
2017-10-26T21:39:34.214Z,20.77
2017-10-26T21:42:02.913Z,17.90
2017-10-26T21:44:30.074Z,16.13
2017-10-26T21:46:57.167Z,22.10
2017-10-26T21:49:24.297Z,18.70
2017-10-26T21:51:51.350Z,18.83
2017-10-26T21:54:19.381Z,20.30
2017-10-26T21:56:46.430Z,22.23
2017-10-26T21:59:14.348Z,19.37
2017-10-26T22:01:42.198Z,18.57
2017-10-26T22:04:09.477Z,21.07
2017-10-26T22:06:36.708Z,17.50
2017-10-26T22:09:04.010Z,17.70
2017-10-26T22:11:33.715Z,22.30
2017-10-26T22:14:00.908Z,20.67
2017-10-26T22:16:28.434Z,20.87
2017-10-26T22:18:55.415Z,20.73
2017-10-26T22:21:22.450Z,18.20
2017-10-26T22:23:49.753Z,18.40
2017-10-26T22:26:16.694Z,20.33
2017-10-26T22:28:44.379Z,18.30
2017-10-26T22:31:11.441Z,19.90
2017-10-26T22:33:39.521Z,20.50
2017-10-26T22:36:06.577Z,19.23
2017-10-26T22:38:34.010Z,31.90
2017-10-26T22:41:01.974Z,25.90
2017-10-26T22:43:29.409Z,22.43
2017-10-26T22:45:57.109Z,19.90
2017-10-26T22:48:24.289Z,20.10
2017-10-26T22:50:51.534Z,20.07
2017-10-26T22:53:19.345Z,19.30
2017-10-26T22:55:47.689Z,19.40
2017-10-26T22:58:15.824Z,23.87
2017-10-26T23:00:42.990Z,17.57
2017-10-26T23:03:10.777Z,20.13
2017-10-26T23:05:40.574Z,16.90
2017-10-26T23:08:09.072Z,21.97
2017-10-26T23:10:36.447Z,17.87
2017-10-26T23:13:04.809Z,17.70
2017-10-26T23:15:32.645Z,19.13
2017-10-26T23:17:59.735Z,18.53
2017-10-26T23:20:28.482Z,17.60
2017-10-26T23:22:56.457Z,18.67
2017-10-26T23:25:23.888Z,17.60
2017-10-26T23:27:51.447Z,18.53
2017-10-26T23:30:19.341Z,17.70
2017-10-26T23:32:46.345Z,18.60
2017-10-26T23:35:14.237Z,17.93
2017-10-26T23:37:42.226Z,19.37
2017-10-26T23:40:09.468Z,17.50
2017-10-26T23:42:36.492Z,18.50
2017-10-26T23:45:03.626Z,18.77
2017-10-26T23:47:31.029Z,19.37
2017-10-26T23:49:59.442Z,18.30
2017-10-26T23:52:26.837Z,19.50
2017-10-26T23:54:54.006Z,19.17
2017-10-26T23:57:21.277Z,20.20
2017-10-26T23:59:49.961Z,21.10
